createdAt,value
2018-06-30T00:00:28.837Z,19.56
2018-06-30T00:02:57.407Z,19.51
2018-06-30T00:05:25.447Z,19.47
2018-06-30T00:07:53.556Z,19.45
2018-06-30T00:10:25.448Z,19.42
2018-06-30T00:12:53.499Z,19.39
2018-06-30T00:15:21.572Z,19.37
2018-06-30T00:17:49.585Z,19.34
2018-06-30T00:20:17.611Z,19.32
2018-06-30T00:22:45.648Z,19.30
2018-06-30T00:25:13.840Z,19.27
2018-06-30T00:27:41.884Z,19.24
2018-06-30T00:30:09.904Z,19.22
2018-06-30T00:32:37.947Z,19.19
2018-06-30T00:35:06.234Z,19.16
2018-06-30T00:37:34.273Z,19.14
2018-06-30T00:40:02.320Z,19.12
2018-06-30T00:42:31.030Z,19.10
2018-06-30T00:44:59.094Z,19.12
2018-06-30T00:47:27.140Z,19.14
2018-06-30T00:49:55.221Z,19.13
2018-06-30T00:52:23.263Z,19.10
2018-06-30T00:54:51.735Z,19.07
2018-06-30T00:57:19.815Z,19.06
2018-06-30T00:59:47.843Z,19.04
2018-06-30T01:02:15.919Z,19.04
2018-06-30T01:04:43.989Z,19.03
2018-06-30T01:07:12.047Z,19.02
2018-06-30T01:09:40.096Z,18.99
2018-06-30T01:12:08.149Z,18.97
2018-06-30T01:14:36.233Z,18.94
2018-06-30T01:17:04.270Z,18.93
2018-06-30T01:19:32.314Z,18.90
2018-06-30T01:22:00.394Z,18.89
2018-06-30T01:24:28.438Z,18.85
2018-06-30T01:26:56.520Z,18.82
2018-06-30T01:29:24.576Z,18.80
2018-06-30T01:31:52.699Z,18.78
2018-06-30T01:34:20.749Z,18.77
2018-06-30T01:36:48.810Z,18.77
2018-06-30T01:39:16.975Z,18.74
2018-06-30T01:41:45.105Z,18.70
2018-06-30T01:44:13.176Z,18.67
2018-06-30T01:46:41.215Z,18.64
2018-06-30T01:49:09.267Z,18.62
2018-06-30T01:51:37.343Z,18.59
2018-06-30T01:54:05.675Z,18.56
2018-06-30T01:56:34.089Z,18.48
2018-06-30T01:59:02.206Z,18.46
2018-06-30T02:01:30.267Z,18.40
2018-06-30T02:03:58.327Z,18.43
2018-06-30T02:06:26.363Z,18.43
2018-06-30T02:08:54.574Z,18.42
2018-06-30T02:11:22.614Z,18.38
2018-06-30T02:13:50.682Z,18.32
2018-06-30T02:16:18.927Z,18.30
2018-06-30T02:18:47.071Z,18.28
2018-06-30T02:21:15.195Z,18.24
2018-06-30T02:23:43.318Z,18.23
2018-06-30T02:26:11.471Z,18.17
2018-06-30T02:28:39.587Z,18.17
2018-06-30T02:31:07.749Z,18.15
2018-06-30T02:33:35.816Z,18.11
2018-06-30T02:36:03.863Z,18.08
2018-06-30T02:38:31.933Z,18.05
2018-06-30T02:41:00.014Z,18.02
2018-06-30T02:43:28.086Z,17.96
2018-06-30T02:45:56.128Z,17.95
2018-06-30T02:48:24.147Z,17.94
2018-06-30T02:50:52.212Z,17.91
2018-06-30T02:53:20.280Z,17.89
2018-06-30T02:55:48.404Z,17.86
2018-06-30T02:58:16.524Z,17.82
2018-06-30T03:00:44.556Z,17.81
2018-06-30T03:03:12.589Z,17.76
2018-06-30T03:05:40.660Z,17.74
2018-06-30T03:08:08.720Z,17.70
2018-06-30T03:10:36.747Z,17.68
2018-06-30T03:13:04.776Z,17.66
2018-06-30T03:15:32.815Z,17.64
2018-06-30T03:18:00.852Z,17.62
2018-06-30T03:20:28.884Z,17.58
2018-06-30T03:22:56.934Z,17.57
2018-06-30T03:25:24.992Z,17.53
2018-06-30T03:27:53.008Z,17.44
2018-06-30T03:30:21.047Z,17.45
2018-06-30T03:32:49.135Z,17.46
2018-06-30T03:35:17.188Z,17.38
2018-06-30T03:37:45.401Z,17.38
2018-06-30T03:40:13.495Z,17.39
2018-06-30T03:42:41.595Z,17.34
2018-06-30T03:45:09.724Z,17.29
2018-06-30T03:47:37.786Z,17.30
2018-06-30T03:50:06.129Z,17.25
2018-06-30T03:52:34.161Z,17.26
2018-06-30T03:55:02.229Z,17.25
2018-06-30T03:57:30.275Z,17.23
2018-06-30T03:59:58.398Z,17.21
2018-06-30T04:02:28.571Z,17.14
2018-06-30T04:04:56.603Z,17.11
2018-06-30T04:07:24.651Z,17.08
2018-06-30T04:09:52.693Z,17.10
2018-06-30T04:12:20.737Z,17.09
2018-06-30T04:14:48.775Z,17.12
2018-06-30T04:17:16.847Z,17.10
2018-06-30T04:19:44.871Z,17.17
2018-06-30T04:22:13.012Z,17.20
2018-06-30T04:24:40.957Z,17.32
2018-06-30T04:27:09.076Z,17.48
2018-06-30T04:29:37.131Z,18.15
2018-06-30T04:32:05.178Z,19.01
2018-06-30T04:34:33.244Z,19.77
2018-06-30T04:37:01.285Z,20.42
2018-06-30T04:39:29.353Z,21.09
2018-06-30T04:41:57.635Z,21.73
2018-06-30T04:44:25.680Z,22.45
2018-06-30T04:46:53.732Z,23.01
2018-06-30T04:49:21.947Z,23.65
2018-06-30T04:51:49.980Z,24.26
2018-06-30T04:54:18.025Z,24.77
2018-06-30T04:56:46.195Z,25.13
2018-06-30T04:59:14.231Z,25.37
2018-06-30T05:01:42.267Z,25.82
2018-06-30T05:04:10.308Z,26.16
2018-06-30T05:06:38.344Z,26.58
2018-06-30T05:09:07.426Z,26.84
2018-06-30T05:11:35.459Z,27.06
2018-06-30T05:14:03.516Z,27.23
2018-06-30T05:16:31.556Z,27.40
2018-06-30T05:18:59.595Z,27.91
2018-06-30T05:21:27.639Z,28.31
2018-06-30T05:23:55.690Z,27.90
2018-06-30T05:26:23.715Z,27.58
2018-06-30T05:28:51.766Z,27.10
2018-06-30T05:31:19.795Z,27.11
2018-06-30T05:33:47.853Z,26.99
2018-06-30T05:36:15.944Z,27.35
2018-06-30T05:38:44.038Z,27.57
2018-06-30T05:41:12.106Z,27.66
2018-06-30T05:43:40.103Z,27.72
2018-06-30T05:46:08.147Z,27.37
2018-06-30T05:48:36.174Z,27.70
2018-06-30T05:51:04.231Z,27.97
2018-06-30T05:53:32.255Z,27.95
2018-06-30T05:56:00.308Z,28.00
2018-06-30T05:58:28.363Z,27.85
2018-06-30T06:00:56.416Z,27.45
2018-06-30T06:03:24.467Z,27.49
2018-06-30T06:05:52.493Z,27.56
2018-06-30T06:08:20.548Z,27.73
2018-06-30T06:10:48.568Z,27.66
2018-06-30T06:13:16.606Z,27.72
2018-06-30T06:15:44.672Z,28.03
2018-06-30T06:18:12.796Z,28.05
2018-06-30T06:20:40.815Z,27.44
2018-06-30T06:23:08.903Z,27.72
2018-06-30T06:25:36.941Z,28.12
2018-06-30T06:28:05.205Z,28.37
2018-06-30T06:30:33.408Z,28.42
2018-06-30T06:33:01.493Z,28.45
2018-06-30T06:35:29.580Z,28.44
2018-06-30T06:37:57.643Z,28.63
2018-06-30T06:40:25.978Z,28.28
2018-06-30T06:42:54.220Z,28.58
2018-06-30T06:45:22.827Z,28.40
2018-06-30T06:47:51.127Z,28.15
2018-06-30T06:50:19.182Z,28.11
2018-06-30T06:52:47.231Z,28.08
2018-06-30T06:55:15.600Z,28.43
2018-06-30T06:57:44.009Z,28.91
2018-06-30T07:00:12.299Z,29.34
2018-06-30T07:02:40.479Z,29.36
2018-06-30T07:05:08.676Z,29.40
2018-06-30T07:07:37.057Z,29.00
2018-06-30T07:10:05.420Z,28.94
2018-06-30T07:12:33.516Z,28.99
2018-06-30T07:15:01.999Z,29.35
2018-06-30T07:17:31.595Z,29.62
2018-06-30T07:19:59.711Z,29.78
2018-06-30T07:22:27.804Z,29.26
2018-06-30T07:24:55.895Z,28.78
2018-06-30T07:27:24.087Z,28.77
2018-06-30T07:29:52.306Z,28.63
2018-06-30T07:32:20.307Z,28.20
2018-06-30T07:34:49.746Z,27.99
2018-06-30T07:37:18.048Z,28.08
2018-06-30T07:39:46.269Z,28.38
2018-06-30T07:42:14.527Z,28.57
2018-06-30T07:44:42.801Z,28.56
2018-06-30T07:47:11.204Z,28.73
2018-06-30T07:49:39.331Z,28.51
2018-06-30T07:52:07.406Z,28.28
2018-06-30T07:54:35.500Z,27.59
2018-06-30T07:57:03.820Z,27.86
2018-06-30T07:59:32.034Z,28.19
2018-06-30T08:02:00.298Z,28.38
2018-06-30T08:04:28.360Z,28.20
2018-06-30T08:06:56.383Z,27.34
2018-06-30T08:09:24.411Z,27.40
2018-06-30T08:11:52.744Z,27.58
2018-06-30T08:14:20.828Z,27.50
2018-06-30T08:16:49.096Z,27.42
2018-06-30T08:19:17.573Z,27.11
2018-06-30T08:21:45.620Z,26.82
2018-06-30T08:24:13.786Z,27.08
2018-06-30T08:26:41.821Z,26.84
2018-06-30T08:29:09.849Z,26.89
2018-06-30T08:31:37.919Z,26.89
2018-06-30T08:34:07.134Z,27.31
2018-06-30T08:36:35.635Z,27.31
2018-06-30T08:39:05.803Z,27.34
2018-06-30T08:41:34.386Z,27.29
2018-06-30T08:44:02.442Z,27.57
2018-06-30T08:46:30.558Z,27.67
2018-06-30T08:48:58.817Z,27.39
2018-06-30T08:51:27.215Z,26.83
2018-06-30T08:53:55.272Z,26.61
2018-06-30T08:56:23.297Z,26.81
2018-06-30T08:58:51.367Z,26.82
2018-06-30T09:01:19.403Z,26.48
2018-06-30T09:03:47.536Z,26.02
2018-06-30T09:06:15.625Z,25.91
2018-06-30T09:08:44.005Z,25.67
2018-06-30T09:11:12.071Z,25.75
2018-06-30T09:13:40.272Z,25.74
2018-06-30T09:16:08.304Z,25.73
2018-06-30T09:18:36.344Z,25.48
2018-06-30T09:21:04.580Z,25.81
2018-06-30T09:23:32.779Z,25.93
2018-06-30T09:26:00.816Z,26.32
2018-06-30T09:28:28.859Z,26.27
2018-06-30T09:30:57.305Z,26.19
2018-06-30T09:33:25.351Z,26.57
2018-06-30T09:35:53.535Z,26.73
2018-06-30T09:38:21.607Z,27.11
2018-06-30T09:40:49.968Z,27.26
2018-06-30T09:43:18.013Z,27.23
2018-06-30T09:45:46.064Z,27.62
2018-06-30T09:48:14.391Z,27.73
2018-06-30T09:52:11.744Z,27.36
2018-06-30T09:54:40.298Z,28.04
2018-06-30T09:57:08.705Z,28.58
2018-06-30T09:59:36.876Z,28.99
2018-06-30T10:02:04.935Z,28.36
2018-06-30T10:04:32.994Z,28.33
2018-06-30T10:07:01.806Z,28.67
2018-06-30T10:09:29.971Z,28.39
2018-06-30T10:11:58.547Z,28.37
2018-06-30T10:14:26.735Z,28.48
2018-06-30T10:16:54.792Z,28.17
2018-06-30T10:19:22.934Z,27.69
2018-06-30T10:21:51.051Z,27.27
2018-06-30T10:24:20.505Z,26.65
2018-06-30T10:26:48.698Z,26.52
2018-06-30T10:29:17.151Z,26.39
2018-06-30T10:31:45.498Z,26.15
2018-06-30T10:34:14.644Z,25.84
2018-06-30T10:36:43.113Z,25.73
2018-06-30T10:39:12.641Z,25.68
2018-06-30T10:41:41.841Z,25.40
2018-06-30T10:44:10.543Z,25.25
2018-06-30T10:46:38.601Z,25.37
2018-06-30T10:49:07.686Z,25.28
2018-06-30T10:51:36.050Z,25.37
2018-06-30T10:54:04.099Z,25.03
2018-06-30T10:56:32.143Z,24.84
2018-06-30T10:59:00.588Z,24.84
2018-06-30T11:01:29.050Z,24.89
2018-06-30T11:03:57.727Z,25.07
2018-06-30T11:06:25.732Z,24.98
2018-06-30T11:08:53.839Z,24.93
2018-06-30T11:11:21.902Z,24.94
2018-06-30T11:13:50.035Z,24.93
2018-06-30T11:16:18.057Z,25.02
2018-06-30T11:18:46.122Z,25.02
2018-06-30T11:21:14.180Z,24.99
2018-06-30T11:23:42.218Z,25.05
2018-06-30T11:26:10.255Z,25.13
2018-06-30T11:28:38.631Z,25.08
2018-06-30T11:31:06.683Z,25.12
2018-06-30T11:33:34.719Z,25.24
2018-06-30T11:36:02.743Z,25.28
2018-06-30T11:38:30.802Z,25.31
2018-06-30T11:40:58.848Z,25.25
2018-06-30T11:43:26.950Z,25.02
2018-06-30T11:45:55.340Z,25.14
2018-06-30T11:48:23.408Z,25.19
2018-06-30T11:50:51.558Z,25.14
2018-06-30T11:53:19.844Z,25.11
2018-06-30T11:55:48.104Z,25.12
2018-06-30T11:58:16.236Z,25.12
2018-06-30T12:00:44.555Z,25.16
2018-06-30T12:03:12.600Z,25.18
2018-06-30T12:05:40.635Z,25.27
2018-06-30T12:08:08.692Z,25.28
2018-06-30T12:10:36.722Z,25.28
2018-06-30T12:13:04.763Z,25.28
2018-06-30T12:15:32.807Z,25.27
2018-06-30T12:18:00.929Z,25.31
2018-06-30T12:20:28.966Z,25.28
2018-06-30T12:22:56.995Z,25.14
2018-06-30T12:25:25.042Z,24.96
2018-06-30T12:27:53.067Z,24.93
2018-06-30T12:30:21.290Z,25.04
2018-06-30T12:32:49.423Z,25.07
2018-06-30T12:35:17.713Z,25.28
2018-06-30T12:37:46.027Z,25.31
2018-06-30T12:40:14.329Z,25.42
2018-06-30T12:42:42.685Z,25.45
2018-06-30T12:45:11.072Z,25.46
2018-06-30T12:47:39.340Z,25.60
2018-06-30T12:50:07.520Z,25.67
2018-06-30T12:52:35.803Z,25.62
2018-06-30T12:55:04.002Z,25.51
2018-06-30T12:57:32.048Z,25.51
2018-06-30T13:00:00.127Z,25.52
2018-06-30T13:02:28.185Z,25.61
2018-06-30T13:04:56.227Z,25.71
2018-06-30T13:07:24.295Z,25.71
2018-06-30T13:09:52.395Z,25.57
2018-06-30T13:12:20.664Z,25.57
2018-06-30T13:14:48.724Z,25.53
2018-06-30T13:17:16.937Z,25.58
2018-06-30T13:19:45.249Z,25.52
2018-06-30T13:22:13.631Z,25.46
2018-06-30T13:24:42.080Z,25.47
2018-06-30T13:27:10.620Z,25.41
2018-06-30T13:29:38.812Z,25.39
2018-06-30T13:32:07.135Z,25.40
2018-06-30T13:34:35.313Z,25.49
2018-06-30T13:37:03.348Z,25.57
2018-06-30T13:39:31.384Z,25.62
2018-06-30T13:41:59.423Z,25.57
2018-06-30T13:44:27.455Z,25.48
2018-06-30T13:46:55.520Z,25.41
2018-06-30T13:49:23.949Z,25.53
2018-06-30T13:51:52.092Z,25.57
2018-06-30T13:54:20.596Z,25.74
2018-06-30T13:56:48.799Z,25.74
2018-06-30T13:59:17.097Z,25.70
2018-06-30T14:01:45.351Z,25.66
2018-06-30T14:04:13.971Z,25.70
2018-06-30T14:06:42.605Z,25.77
2018-06-30T14:09:12.011Z,25.78
2018-06-30T14:11:40.603Z,25.71
2018-06-30T14:14:09.293Z,25.64
2018-06-30T14:16:37.327Z,25.54
2018-06-30T14:19:05.491Z,25.54
2018-06-30T14:21:33.538Z,25.66
2018-06-30T14:24:01.587Z,25.56
2018-06-30T14:26:29.772Z,25.55
2018-06-30T14:28:58.546Z,25.61
2018-06-30T14:31:26.614Z,25.59
2018-06-30T14:33:54.817Z,25.55
2018-06-30T14:36:22.838Z,25.49
2018-06-30T14:38:50.883Z,25.53
2018-06-30T14:41:18.963Z,25.56
2018-06-30T14:43:47.107Z,25.63
2018-06-30T14:46:15.083Z,25.61
2018-06-30T14:48:43.427Z,25.51
2018-06-30T14:51:11.919Z,25.47
2018-06-30T14:53:40.423Z,25.45
2018-06-30T14:56:08.755Z,25.44
2018-06-30T14:58:36.942Z,25.47
2018-06-30T15:01:05.065Z,25.54
2018-06-30T15:03:33.099Z,25.51
2018-06-30T15:06:01.336Z,25.56
2018-06-30T15:08:29.375Z,25.51
2018-06-30T15:10:57.424Z,25.57
2018-06-30T15:13:25.480Z,25.66
2018-06-30T15:15:53.527Z,25.74
2018-06-30T15:18:21.820Z,25.69
2018-06-30T15:20:51.334Z,25.72
2018-06-30T15:23:19.688Z,25.74
2018-06-30T15:25:47.888Z,25.73
2018-06-30T15:28:16.247Z,25.75
2018-06-30T15:30:45.393Z,25.76
2018-06-30T15:33:18.205Z,25.64
2018-06-30T15:35:46.593Z,25.56
2018-06-30T15:38:14.764Z,25.48
2018-06-30T15:40:43.263Z,25.48
2018-06-30T15:43:11.903Z,25.58
2018-06-30T15:45:41.089Z,25.61
2018-06-30T15:48:09.535Z,25.65
2018-06-30T15:50:37.622Z,25.72
2018-06-30T15:53:06.015Z,25.64
2018-06-30T15:55:34.078Z,25.59
2018-06-30T15:58:02.178Z,25.57
2018-06-30T16:00:30.239Z,25.63
2018-06-30T16:02:58.279Z,25.54
2018-06-30T16:05:26.350Z,25.55
2018-06-30T16:07:54.371Z,25.50
2018-06-30T16:10:22.546Z,25.41
2018-06-30T16:12:50.852Z,25.50
2018-06-30T16:15:19.260Z,25.53
2018-06-30T16:17:47.546Z,25.58
2018-06-30T16:20:15.810Z,25.47
2018-06-30T16:22:44.424Z,25.46
2018-06-30T16:25:12.998Z,25.36
2018-06-30T16:27:41.454Z,25.37
2018-06-30T16:30:10.124Z,25.33
2018-06-30T16:32:38.223Z,25.31
2018-06-30T16:35:06.267Z,25.36
2018-06-30T16:37:34.315Z,25.34
2018-06-30T16:40:02.388Z,25.31
2018-06-30T16:42:30.447Z,25.34
2018-06-30T16:44:58.480Z,25.30
2018-06-30T16:47:26.540Z,25.31
2018-06-30T16:49:54.580Z,25.26
2018-06-30T16:52:23.084Z,25.20
2018-06-30T16:54:51.543Z,25.07
2018-06-30T16:57:19.954Z,25.17
2018-06-30T16:59:48.321Z,25.24
2018-06-30T17:02:16.633Z,25.25
2018-06-30T17:04:45.263Z,25.22
2018-06-30T17:07:13.888Z,25.18
2018-06-30T17:09:43.074Z,25.20
2018-06-30T17:12:12.055Z,25.19
2018-06-30T17:14:41.287Z,25.16
2018-06-30T17:17:09.742Z,25.13
2018-06-30T17:19:39.025Z,25.08
2018-06-30T17:22:07.527Z,25.11
2018-06-30T17:24:35.800Z,25.14
2018-06-30T17:27:04.020Z,25.12
2018-06-30T17:29:32.068Z,24.96
2018-06-30T17:32:00.164Z,25.03
2018-06-30T17:34:28.224Z,24.97
2018-06-30T17:36:56.273Z,24.98
2018-06-30T17:39:24.355Z,24.93
2018-06-30T17:41:52.476Z,24.92
2018-06-30T17:44:20.531Z,24.90
2018-06-30T17:46:48.579Z,24.76
2018-06-30T17:49:16.608Z,24.70
2018-06-30T17:51:44.879Z,24.72
2018-06-30T17:54:12.924Z,24.74
2018-06-30T17:56:40.947Z,24.68
2018-06-30T17:59:08.999Z,24.62
2018-06-30T18:01:37.027Z,24.55
2018-06-30T18:04:05.411Z,24.51
2018-06-30T18:06:33.674Z,24.50
2018-06-30T18:09:01.729Z,24.45
2018-06-30T18:11:29.771Z,24.40
2018-06-30T18:13:57.900Z,24.42
2018-06-30T18:16:25.929Z,24.34
2018-06-30T18:18:53.975Z,24.27
2018-06-30T18:21:22.011Z,24.24
2018-06-30T18:23:50.056Z,24.19
2018-06-30T18:26:18.115Z,24.17
2018-06-30T18:28:47.538Z,24.16
2018-06-30T18:31:16.168Z,24.01
2018-06-30T18:33:44.879Z,24.03
2018-06-30T18:36:14.326Z,23.98
2018-06-30T18:38:43.809Z,23.95
2018-06-30T18:41:13.084Z,23.91
2018-06-30T18:43:42.029Z,23.87
2018-06-30T18:46:11.612Z,23.84
2018-06-30T18:48:40.359Z,23.76
2018-06-30T18:51:08.697Z,23.72
2018-06-30T18:53:36.748Z,23.67
2018-06-30T18:56:04.996Z,23.58
2018-06-30T18:58:33.064Z,23.55
2018-06-30T19:01:01.112Z,23.50
2018-06-30T19:03:29.171Z,23.43
2018-06-30T19:05:57.211Z,23.38
2018-06-30T19:08:25.249Z,23.28
2018-06-30T19:10:53.482Z,23.25
2018-06-30T19:13:21.684Z,23.16
2018-06-30T19:15:50.293Z,23.08
2018-06-30T19:18:18.821Z,23.00
2018-06-30T19:20:47.133Z,22.95
2018-06-30T19:23:15.707Z,22.84
2018-06-30T19:25:44.452Z,22.77
2018-06-30T19:28:13.287Z,22.67
2018-06-30T19:30:42.258Z,22.60
2018-06-30T19:33:10.395Z,22.52
2018-06-30T19:35:38.485Z,22.47
2018-06-30T19:38:06.531Z,22.38
2018-06-30T19:40:34.579Z,22.29
2018-06-30T19:43:02.707Z,22.21
2018-06-30T19:45:30.761Z,22.10
2018-06-30T19:47:58.800Z,22.05
2018-06-30T19:50:26.855Z,21.97
2018-06-30T19:52:54.896Z,21.89
2018-06-30T19:55:22.968Z,21.82
2018-06-30T19:57:51.260Z,21.80
2018-06-30T20:00:19.319Z,21.72
2018-06-30T20:02:47.392Z,21.58
2018-06-30T20:05:15.433Z,21.54
2018-06-30T20:07:48.819Z,21.49
2018-06-30T20:10:17.025Z,21.40
2018-06-30T20:12:45.272Z,21.33
2018-06-30T20:15:13.320Z,21.27
2018-06-30T20:17:41.562Z,21.23
2018-06-30T20:20:10.238Z,21.16
2018-06-30T20:22:38.404Z,21.09
2018-06-30T20:25:06.547Z,21.03
2018-06-30T20:27:34.659Z,20.96
2018-06-30T20:30:02.828Z,20.89
2018-06-30T20:32:31.008Z,20.81
2018-06-30T20:34:59.457Z,20.75
2018-06-30T20:37:27.671Z,20.69
2018-06-30T20:39:56.762Z,20.65
2018-06-30T20:42:25.135Z,20.58
2018-06-30T20:44:53.175Z,20.52
2018-06-30T20:47:21.277Z,20.42
2018-06-30T20:49:49.388Z,20.34
2018-06-30T20:52:17.468Z,20.30
2018-06-30T20:54:45.619Z,20.21
2018-06-30T20:57:13.696Z,20.15
2018-06-30T20:59:41.751Z,20.10
2018-06-30T21:02:09.978Z,20.03
2018-06-30T21:04:38.007Z,19.99
2018-06-30T21:07:06.308Z,19.94
2018-06-30T21:09:34.859Z,19.87
2018-06-30T21:12:02.964Z,19.81
2018-06-30T21:14:31.325Z,19.78
2018-06-30T21:16:59.497Z,19.71
2018-06-30T21:19:27.534Z,19.63
2018-06-30T21:21:55.677Z,19.56
2018-06-30T21:24:23.776Z,19.51
2018-06-30T21:26:51.848Z,19.45
2018-06-30T21:29:20.036Z,19.40
2018-06-30T21:31:48.292Z,19.34
2018-06-30T21:34:16.328Z,19.32
2018-06-30T21:36:44.389Z,19.27
2018-06-30T21:39:13.477Z,19.23
2018-06-30T21:41:41.780Z,19.19
2018-06-30T21:44:09.929Z,19.14
2018-06-30T21:46:38.874Z,19.11
2018-06-30T21:49:06.992Z,19.08
2018-06-30T21:51:35.151Z,19.05
2018-06-30T21:54:03.305Z,19.02
2018-06-30T21:56:31.595Z,18.96
2018-06-30T21:58:59.699Z,18.91
2018-06-30T22:01:27.739Z,18.87
2018-06-30T22:03:56.905Z,18.84
2018-06-30T22:06:25.143Z,18.79
2018-06-30T22:08:53.184Z,18.76
2018-06-30T22:11:21.311Z,18.69
2018-06-30T22:13:49.351Z,18.66
2018-06-30T22:16:17.488Z,18.59
2018-06-30T22:18:45.564Z,18.52
2018-06-30T22:21:13.732Z,18.44
2018-06-30T22:23:41.827Z,18.37
2018-06-30T22:26:09.905Z,18.29
2018-06-30T22:28:37.990Z,18.24
2018-06-30T22:31:06.033Z,18.20
2018-06-30T22:33:34.088Z,18.17
2018-06-30T22:36:02.168Z,18.11
2018-06-30T22:38:30.237Z,18.09
2018-06-30T22:40:58.271Z,18.04
2018-06-30T22:43:26.303Z,17.99
2018-06-30T22:45:54.368Z,17.95
2018-06-30T22:48:22.404Z,17.89
2018-06-30T22:50:50.724Z,17.86
2018-06-30T22:53:18.765Z,17.81
2018-06-30T22:55:46.795Z,17.75
2018-06-30T22:58:14.848Z,17.71
2018-06-30T23:00:42.913Z,17.68
2018-06-30T23:03:12.096Z,17.65
2018-06-30T23:05:40.999Z,17.61
2018-06-30T23:08:09.100Z,17.58
2018-06-30T23:10:37.152Z,17.56
2018-06-30T23:13:05.220Z,17.55
2018-06-30T23:15:33.257Z,17.53
2018-06-30T23:18:01.307Z,17.52
2018-06-30T23:20:29.359Z,17.51
2018-06-30T23:22:58.683Z,17.48
2018-06-30T23:25:27.806Z,17.48
2018-06-30T23:27:56.321Z,17.46
2018-06-30T23:30:24.997Z,17.44
2018-06-30T23:32:53.195Z,17.42
2018-06-30T23:35:22.521Z,17.40
2018-06-30T23:37:50.791Z,17.36
2018-06-30T23:40:18.998Z,17.32
2018-06-30T23:42:47.035Z,17.29
2018-06-30T23:45:15.091Z,17.24
2018-06-30T23:47:43.162Z,17.21
2018-06-30T23:50:11.207Z,17.17
2018-06-30T23:52:39.238Z,17.15
2018-06-30T23:55:07.911Z,17.11
2018-06-30T23:57:35.959Z,17.08
